createdAt,value
2023-01-18T00:00:42.942Z,5.30
2023-01-18T00:03:13.227Z,4.87
2023-01-18T00:05:42.089Z,5.73
2023-01-18T00:08:13.173Z,4.37
2023-01-18T00:10:42.079Z,5.10
2023-01-18T00:13:12.710Z,5.00
2023-01-18T00:15:40.997Z,4.90
2023-01-18T00:18:09.265Z,4.87
2023-01-18T00:20:37.396Z,6.73
2023-01-18T00:23:06.288Z,5.60
2023-01-18T00:25:34.503Z,5.00
2023-01-18T00:28:03.938Z,5.80
2023-01-18T00:30:33.954Z,4.93
2023-01-18T00:33:02.115Z,4.40
2023-01-18T00:35:32.135Z,4.50
2023-01-18T00:38:01.433Z,4.77
2023-01-18T00:40:30.280Z,4.40
2023-01-18T00:43:15.741Z,5.87
2023-01-18T00:45:45.905Z,5.97
2023-01-18T00:48:14.601Z,5.63
2023-01-18T00:50:42.864Z,5.90
2023-01-18T00:53:11.072Z,5.57
2023-01-18T00:55:39.356Z,6.27
2023-01-18T00:58:07.606Z,5.73
2023-01-18T01:00:35.973Z,6.10
2023-01-18T01:03:05.619Z,5.93
2023-01-18T01:05:51.178Z,6.47
2023-01-18T01:08:19.891Z,6.57
2023-01-18T01:10:50.484Z,5.90
2023-01-18T01:13:38.138Z,6.67
2023-01-18T01:16:24.842Z,5.73
2023-01-18T01:19:16.059Z,6.77
2023-01-18T01:22:01.689Z,6.73
2023-01-18T01:24:47.310Z,6.77
2023-01-18T01:27:15.556Z,7.00
2023-01-18T01:29:43.899Z,7.40
2023-01-18T01:32:13.171Z,6.30
2023-01-18T01:34:42.919Z,5.70
2023-01-18T01:37:11.272Z,6.13
2023-01-18T01:39:40.028Z,6.37
2023-01-18T01:42:10.516Z,6.63
2023-01-18T01:44:46.332Z,5.90
2023-01-18T01:47:22.871Z,5.13
2023-01-18T01:49:55.955Z,5.07
2023-01-18T01:52:27.647Z,5.80
2023-01-18T01:55:01.781Z,5.40
2023-01-18T01:57:32.662Z,6.20
2023-01-18T02:00:03.398Z,5.70
2023-01-18T02:02:36.239Z,6.53
2023-01-18T02:05:08.943Z,5.63
2023-01-18T02:07:37.392Z,5.30
2023-01-18T02:10:07.589Z,5.67
2023-01-18T02:12:40.337Z,5.27
2023-01-18T02:15:10.262Z,6.07
2023-01-18T02:18:08.233Z,6.20
2023-01-18T02:20:57.740Z,5.43
2023-01-18T02:24:01.731Z,6.23
2023-01-18T02:27:02.042Z,5.47
2023-01-18T02:29:50.104Z,6.40
2023-01-18T02:32:30.733Z,5.87
2023-01-18T02:35:07.982Z,5.70
2023-01-18T02:37:50.332Z,6.80
2023-01-18T02:40:25.376Z,6.67
2023-01-18T02:43:11.770Z,5.20
2023-01-18T02:46:02.679Z,5.10
2023-01-18T02:48:35.060Z,6.03
2023-01-18T02:51:03.271Z,5.23
2023-01-18T02:53:32.360Z,4.87
2023-01-18T02:56:05.027Z,5.50
2023-01-18T02:58:35.695Z,5.87
2023-01-18T03:01:10.005Z,5.67
2023-01-18T03:03:40.302Z,5.67
2023-01-18T03:06:10.181Z,5.30
2023-01-18T03:08:42.412Z,4.87
2023-01-18T03:11:16.728Z,5.27
2023-01-18T03:13:58.493Z,4.93
2023-01-18T03:16:39.671Z,5.23
2023-01-18T03:19:32.604Z,5.33
2023-01-18T03:22:03.907Z,4.90
2023-01-18T03:24:31.348Z,4.60
2023-01-18T03:27:18.126Z,5.03
2023-01-18T03:30:05.245Z,5.50
2023-01-18T03:32:52.893Z,5.60
2023-01-18T03:35:27.272Z,5.93
2023-01-18T03:37:57.533Z,5.97
2023-01-18T03:40:30.425Z,5.40
2023-01-18T03:43:13.438Z,4.63
2023-01-18T03:45:45.203Z,5.33
2023-01-18T03:48:15.860Z,5.70
2023-01-18T03:50:50.767Z,5.90
2023-01-18T03:53:32.785Z,5.07
2023-01-18T03:56:06.554Z,4.40
2023-01-18T03:58:37.790Z,5.17
2023-01-18T04:01:09.506Z,4.60
2023-01-18T04:03:39.429Z,4.63
2023-01-18T04:06:11.428Z,4.63
2023-01-18T04:08:40.587Z,4.13
2023-01-18T04:11:08.920Z,4.63
2023-01-18T04:13:39.935Z,4.13
2023-01-18T04:16:08.529Z,4.87
2023-01-18T04:18:37.221Z,5.17
2023-01-18T04:21:07.201Z,4.83
2023-01-18T04:23:35.414Z,5.70
2023-01-18T04:26:05.049Z,5.40
2023-01-18T04:28:34.618Z,5.87
2023-01-18T04:31:06.262Z,5.60
2023-01-18T04:33:34.470Z,5.90
2023-01-18T04:36:02.717Z,6.60
2023-01-18T04:38:32.376Z,6.33
2023-01-18T04:41:04.541Z,6.50
2023-01-18T04:43:33.077Z,4.80
2023-01-18T04:46:01.985Z,6.00
2023-01-18T04:48:31.552Z,5.87
2023-01-18T04:51:04.523Z,7.67
2023-01-18T04:53:36.287Z,9.10
2023-01-18T04:56:04.895Z,8.67
2023-01-18T04:58:33.240Z,7.87
2023-01-18T05:01:02.471Z,9.00
2023-01-18T05:03:31.535Z,9.30
2023-01-18T05:05:59.841Z,9.50
2023-01-18T05:08:28.053Z,9.30
2023-01-18T05:11:03.593Z,9.97
2023-01-18T05:13:32.076Z,9.90
2023-01-18T05:16:03.301Z,8.93
2023-01-18T05:18:33.047Z,9.10
2023-01-18T05:21:01.592Z,9.33
2023-01-18T05:23:30.326Z,14.50
2023-01-18T05:25:59.674Z,9.00
2023-01-18T05:28:29.705Z,10.00
2023-01-18T05:30:58.236Z,9.83
2023-01-18T05:33:26.449Z,9.83
2023-01-18T05:35:56.325Z,7.70
2023-01-18T05:38:25.026Z,8.47
2023-01-18T05:40:54.844Z,9.80
2023-01-18T05:43:25.813Z,9.50
2023-01-18T05:45:55.511Z,9.40
2023-01-18T05:48:24.733Z,11.60
2023-01-18T05:50:53.967Z,9.17
2023-01-18T05:53:23.521Z,9.30
2023-01-18T05:55:56.300Z,8.20
2023-01-18T05:58:26.181Z,7.67
2023-01-18T06:00:56.763Z,7.90
2023-01-18T06:03:26.391Z,7.50
2023-01-18T06:05:55.799Z,7.10
2023-01-18T06:08:24.092Z,7.03
2023-01-18T06:10:56.647Z,6.53
2023-01-18T06:13:28.011Z,6.10
2023-01-18T06:15:58.250Z,5.70
2023-01-18T06:18:27.729Z,5.93
2023-01-18T06:21:01.611Z,5.60
2023-01-18T06:23:30.282Z,5.20
2023-01-18T06:25:59.397Z,5.53
2023-01-18T06:28:33.503Z,5.27
2023-01-18T06:31:04.972Z,5.60
2023-01-18T06:33:33.337Z,5.23
2023-01-18T06:36:02.034Z,5.10
2023-01-18T06:38:31.287Z,5.30
2023-01-18T06:40:59.638Z,5.50
2023-01-18T06:43:28.382Z,5.67
2023-01-18T06:45:57.805Z,5.27
2023-01-18T06:48:28.606Z,5.80
2023-01-18T06:50:58.284Z,4.87
2023-01-18T06:53:30.736Z,4.83
2023-01-18T06:56:01.885Z,3.67
2023-01-18T06:58:32.849Z,4.13
2023-01-18T07:01:02.126Z,3.87
2023-01-18T07:03:32.705Z,4.20
2023-01-18T07:06:03.103Z,4.70
2023-01-18T07:08:32.905Z,4.73
2023-01-18T07:11:06.264Z,6.77
2023-01-18T07:13:34.597Z,5.03
2023-01-18T07:16:03.283Z,5.20
2023-01-18T07:18:32.824Z,4.77
2023-01-18T07:21:04.341Z,4.40
2023-01-18T07:23:37.266Z,4.57
2023-01-18T07:26:07.082Z,4.70
2023-01-18T07:28:36.249Z,5.73
2023-01-18T07:31:06.184Z,6.00
2023-01-18T07:33:36.113Z,6.53
2023-01-18T07:36:09.638Z,7.40
2023-01-18T07:38:39.338Z,6.53
2023-01-18T07:41:10.689Z,5.77
2023-01-18T07:43:39.557Z,7.03
2023-01-18T07:46:10.366Z,6.10
2023-01-18T07:48:42.635Z,6.23
2023-01-18T07:51:11.782Z,5.77
2023-01-18T07:53:41.135Z,5.10
2023-01-18T07:56:13.575Z,5.00
2023-01-18T07:58:41.999Z,4.73
2023-01-18T08:01:14.008Z,6.90
2023-01-18T08:03:45.288Z,6.47
2023-01-18T08:06:13.932Z,6.20
2023-01-18T08:08:42.111Z,6.00
2023-01-18T08:11:11.751Z,5.20
2023-01-18T08:13:40.027Z,5.23
2023-01-18T08:16:11.172Z,5.13
2023-01-18T08:18:39.972Z,5.37
2023-01-18T08:21:13.179Z,5.23
2023-01-18T08:23:42.626Z,5.40
2023-01-18T08:26:12.923Z,5.13
2023-01-18T08:28:41.483Z,5.07
2023-01-18T08:31:12.802Z,5.83
2023-01-18T08:33:44.679Z,5.80
2023-01-18T08:36:16.412Z,5.20
2023-01-18T08:38:49.137Z,5.33
2023-01-18T08:41:17.950Z,5.00
2023-01-18T08:43:50.756Z,5.80
2023-01-18T08:46:19.183Z,4.50
2023-01-18T08:48:50.744Z,4.90
2023-01-18T08:51:23.065Z,5.37
2023-01-18T08:53:51.638Z,5.93
2023-01-18T08:56:20.340Z,5.60
2023-01-18T08:58:48.792Z,5.67
2023-01-18T09:01:17.332Z,5.67
2023-01-18T09:03:47.999Z,6.20
2023-01-18T09:06:18.379Z,5.07
2023-01-18T09:08:49.948Z,6.10
2023-01-18T09:11:20.799Z,5.80
2023-01-18T09:14:00.297Z,5.33
2023-01-18T09:16:31.134Z,6.03
2023-01-18T09:19:00.114Z,6.03
2023-01-18T09:21:29.596Z,5.47
2023-01-18T09:23:59.831Z,6.07
2023-01-18T09:26:37.951Z,5.30
2023-01-18T09:29:06.202Z,5.60
2023-01-18T09:31:34.688Z,5.65
2023-01-18T09:34:18.796Z,5.40
2023-01-18T09:36:50.980Z,5.50
2023-01-18T09:39:21.200Z,5.38
2023-01-18T09:41:53.802Z,5.35
2023-01-18T09:44:26.982Z,4.65
2023-01-18T09:46:59.165Z,4.95
2023-01-18T09:49:36.794Z,4.95
2023-01-18T09:52:19.447Z,4.75
2023-01-18T09:54:58.372Z,5.35
2023-01-18T09:57:44.695Z,5.00
2023-01-18T10:00:21.113Z,4.88
2023-01-18T10:02:55.931Z,5.67
2023-01-18T10:05:29.381Z,5.60
2023-01-18T10:08:04.934Z,4.95
2023-01-18T10:10:41.344Z,4.55
2023-01-18T10:13:37.958Z,4.80
2023-01-18T10:16:14.605Z,4.28
2023-01-18T10:18:48.181Z,4.78
2023-01-18T10:21:25.883Z,4.68
2023-01-18T10:24:16.396Z,3.72
2023-01-18T10:26:49.342Z,4.55
2023-01-18T10:29:25.866Z,4.30
2023-01-18T10:31:58.682Z,4.35
2023-01-18T10:34:33.211Z,4.47
2023-01-18T10:37:14.446Z,3.95
2023-01-18T10:39:48.528Z,4.65
2023-01-18T10:42:23.626Z,4.55
2023-01-18T10:44:52.452Z,4.90
2023-01-18T10:47:21.724Z,4.53
2023-01-18T10:49:52.014Z,5.20
2023-01-18T10:52:28.041Z,4.95
2023-01-18T10:54:59.585Z,4.47
2023-01-18T10:57:32.778Z,5.10
2023-01-18T11:00:01.616Z,4.82
2023-01-18T11:02:35.988Z,5.13
2023-01-18T11:05:20.245Z,4.88
2023-01-18T11:08:09.849Z,5.82
2023-01-18T11:10:39.634Z,5.85
2023-01-18T11:13:25.658Z,6.68
2023-01-18T11:16:06.169Z,6.78
2023-01-18T11:18:34.596Z,6.50
2023-01-18T11:21:04.908Z,6.70
2023-01-18T11:23:36.433Z,6.78
2023-01-18T11:26:08.041Z,7.63
2023-01-18T11:28:42.175Z,7.35
2023-01-18T11:31:13.795Z,7.32
2023-01-18T11:33:51.104Z,6.93
2023-01-18T11:36:20.804Z,7.07
2023-01-18T11:38:49.395Z,6.38
2023-01-18T11:41:24.233Z,7.03
2023-01-18T11:44:05.963Z,6.47
2023-01-18T11:46:41.780Z,6.60
2023-01-18T11:49:23.196Z,6.38
2023-01-18T11:51:56.474Z,6.40
2023-01-18T11:54:30.827Z,6.35
2023-01-18T11:57:02.701Z,6.25
2023-01-18T11:59:35.725Z,5.53
2023-01-18T12:02:30.816Z,6.00
2023-01-18T12:05:20.844Z,6.50
2023-01-18T12:08:00.009Z,6.72
2023-01-18T12:10:34.081Z,6.00
2023-01-18T12:13:15.528Z,5.40
2023-01-18T12:16:10.119Z,5.07
2023-01-18T12:18:57.765Z,5.03
2023-01-18T12:21:32.550Z,5.07
2023-01-18T12:24:46.531Z,5.13
2023-01-18T12:27:25.130Z,5.18
2023-01-18T12:30:09.312Z,5.75
2023-01-18T12:32:57.595Z,5.28
2023-01-18T12:35:39.645Z,5.93
2023-01-18T12:38:18.402Z,5.43
2023-01-18T12:41:01.859Z,5.38
2023-01-18T12:43:41.605Z,5.32
2023-01-18T12:46:12.645Z,6.70
2023-01-18T12:48:50.911Z,6.80
2023-01-18T12:51:22.863Z,6.10
2023-01-18T12:53:55.736Z,6.22
2023-01-18T12:56:31.332Z,5.78
2023-01-18T12:59:02.771Z,6.20
2023-01-18T13:01:38.928Z,5.50
2023-01-18T13:04:15.274Z,4.78
2023-01-18T13:06:48.247Z,5.35
2023-01-18T13:09:23.076Z,5.45
2023-01-18T13:11:51.566Z,5.63
2023-01-18T13:14:26.426Z,4.57
2023-01-18T13:17:03.864Z,5.15
2023-01-18T13:19:41.358Z,5.43
2023-01-18T13:22:20.455Z,5.55
2023-01-18T13:25:10.440Z,5.10
2023-01-18T13:27:38.772Z,4.32
2023-01-18T13:30:19.791Z,4.93
2023-01-18T13:32:49.503Z,4.55
2023-01-18T13:35:24.424Z,4.75
2023-01-18T13:38:12.393Z,3.95
2023-01-18T13:40:52.454Z,4.63
2023-01-18T13:43:32.654Z,4.85
2023-01-18T13:46:03.681Z,4.93
2023-01-18T13:48:46.510Z,4.93
2023-01-18T13:51:54.702Z,4.82
2023-01-18T13:55:03.994Z,4.20
2023-01-18T13:57:34.665Z,4.53
2023-01-18T14:00:03.604Z,4.78
2023-01-18T14:02:41.904Z,5.07
2023-01-18T14:05:25.089Z,4.45
2023-01-18T14:07:58.156Z,4.80
2023-01-18T14:10:31.766Z,4.15
2023-01-18T14:13:02.584Z,4.55
2023-01-18T14:15:51.144Z,4.90
2023-01-18T14:18:23.661Z,4.78
2023-01-18T14:21:20.942Z,5.38
2023-01-18T14:24:34.123Z,4.65
2023-01-18T14:27:15.215Z,4.53
2023-01-18T14:29:48.060Z,4.80
2023-01-18T14:32:23.236Z,5.63
2023-01-18T14:34:59.096Z,4.63
2023-01-18T14:37:29.655Z,4.53
2023-01-18T14:40:08.003Z,4.53
2023-01-18T14:42:40.703Z,4.85
2023-01-18T14:45:23.735Z,4.80
2023-01-18T14:47:52.826Z,4.80
2023-01-18T14:50:23.700Z,5.43
2023-01-18T14:52:53.941Z,4.80
2023-01-18T14:55:28.263Z,4.93
2023-01-18T14:58:12.979Z,4.43
2023-01-18T15:00:48.454Z,5.53
2023-01-18T15:03:24.085Z,10.32
2023-01-18T15:05:59.988Z,4.82
2023-01-18T15:08:35.395Z,4.95
2023-01-18T15:11:09.034Z,4.85
2023-01-18T15:13:49.300Z,5.60
2023-01-18T15:16:21.433Z,5.28
2023-01-18T15:18:51.556Z,4.50
2023-01-18T15:21:26.658Z,4.73
2023-01-18T15:24:02.160Z,5.27
2023-01-18T15:26:47.317Z,4.40
2023-01-18T15:29:21.748Z,4.60
2023-01-18T15:31:53.646Z,4.27
2023-01-18T15:37:33.250Z,4.47
2023-01-18T15:40:27.750Z,3.87
2023-01-18T15:43:06.818Z,3.90
2023-01-18T15:45:38.673Z,3.88
2023-01-18T15:48:17.442Z,3.63
2023-01-18T15:50:49.529Z,4.50
2023-01-18T15:53:21.281Z,3.70
2023-01-18T15:55:52.663Z,3.90
2023-01-18T15:58:30.889Z,3.50
2023-01-18T16:01:00.743Z,4.03
2023-01-18T16:03:33.879Z,3.88
2023-01-18T16:06:11.995Z,4.20
2023-01-18T16:08:58.902Z,4.13
2023-01-18T16:11:31.170Z,3.60
2023-01-18T16:14:02.579Z,3.60
2023-01-18T16:16:35.433Z,3.90
2023-01-18T16:19:12.145Z,3.90
2023-01-18T16:21:47.981Z,3.43
2023-01-18T16:24:19.708Z,3.50
2023-01-18T16:26:48.535Z,3.80
2023-01-18T16:29:19.105Z,3.60
2023-01-18T16:31:50.918Z,2.77
2023-01-18T16:34:27.103Z,3.27
2023-01-18T16:36:55.783Z,3.40
2023-01-18T16:39:24.555Z,3.90
2023-01-18T16:41:57.314Z,3.20
2023-01-18T16:44:31.002Z,3.40
2023-01-18T16:47:00.192Z,3.47
2023-01-18T16:49:29.168Z,2.80
2023-01-18T16:51:57.412Z,2.67
2023-01-18T16:54:25.704Z,2.97
2023-01-18T16:56:53.913Z,2.90
2023-01-18T16:59:23.967Z,3.00
2023-01-18T17:01:53.679Z,2.73
2023-01-18T17:04:21.868Z,2.77
2023-01-18T17:06:50.672Z,2.90
2023-01-18T17:09:21.718Z,2.60
2023-01-18T17:11:57.421Z,2.90
2023-01-18T17:14:26.193Z,2.83
2023-01-18T17:16:56.363Z,4.10
2023-01-18T17:19:25.808Z,2.80
2023-01-18T17:21:54.218Z,3.30
2023-01-18T17:24:24.006Z,2.80
2023-01-18T17:26:52.725Z,2.50
2023-01-18T17:29:22.550Z,2.90
2023-01-18T17:31:53.052Z,2.60
2023-01-18T17:34:28.261Z,2.93
2023-01-18T17:36:58.778Z,2.97
2023-01-18T17:39:42.472Z,2.90
2023-01-18T17:42:22.804Z,2.73
2023-01-18T17:45:02.982Z,2.90
2023-01-18T17:47:33.671Z,3.80
2023-01-18T17:50:08.986Z,3.67
2023-01-18T17:52:38.742Z,3.80
2023-01-18T17:55:09.757Z,3.73
2023-01-18T17:57:38.022Z,3.63
2023-01-18T18:00:09.161Z,3.73
2023-01-18T18:02:37.843Z,3.53
2023-01-18T18:05:11.320Z,3.60
2023-01-18T18:07:39.639Z,3.53
2023-01-18T18:10:09.224Z,2.93
2023-01-18T18:12:38.176Z,3.70
2023-01-18T18:15:07.795Z,4.30
2023-01-18T18:17:36.066Z,4.60
2023-01-18T18:20:04.716Z,3.80
2023-01-18T18:22:35.497Z,3.97
2023-01-18T18:25:06.921Z,3.87
2023-01-18T18:27:45.192Z,4.73
2023-01-18T18:30:14.415Z,4.53
2023-01-18T18:32:42.858Z,4.60
2023-01-18T18:35:24.435Z,4.17
2023-01-18T18:37:57.686Z,3.80
2023-01-18T18:40:29.711Z,4.37
2023-01-18T18:43:03.204Z,3.70
2023-01-18T18:45:32.566Z,4.57
2023-01-18T18:48:01.921Z,4.90
2023-01-18T18:50:30.957Z,4.47
2023-01-18T18:53:01.060Z,5.20
2023-01-18T18:55:29.886Z,4.80
2023-01-18T18:57:58.891Z,4.87
2023-01-18T19:00:27.438Z,5.07
2023-01-18T19:03:00.502Z,5.10
2023-01-18T19:05:31.181Z,5.47
2023-01-18T19:08:01.651Z,4.97
2023-01-18T19:10:30.481Z,5.07
2023-01-18T19:13:02.300Z,5.33
2023-01-18T19:15:30.903Z,5.70
2023-01-18T19:17:59.407Z,5.23
2023-01-18T19:20:28.495Z,6.73
2023-01-18T19:22:57.018Z,6.27
2023-01-18T19:25:26.552Z,4.97
2023-01-18T19:27:55.504Z,6.20
2023-01-18T19:30:29.518Z,6.00
2023-01-18T19:32:59.980Z,5.90
2023-01-18T19:35:31.239Z,5.87
2023-01-18T19:38:01.014Z,5.50
2023-01-18T19:40:30.651Z,5.80
2023-01-18T19:43:00.590Z,6.23
2023-01-18T19:45:30.971Z,6.03
2023-01-18T19:48:01.332Z,6.07
2023-01-18T19:50:32.940Z,5.73
2023-01-18T19:53:02.168Z,4.83
2023-01-18T19:55:33.222Z,5.33
2023-01-18T19:58:02.222Z,5.70
2023-01-18T20:00:30.750Z,5.67
2023-01-18T20:02:59.983Z,5.60
2023-01-18T20:05:28.919Z,5.87
2023-01-18T20:07:57.865Z,5.90
2023-01-18T20:10:26.740Z,5.60
2023-01-18T20:13:00.013Z,6.23
2023-01-18T20:15:30.128Z,5.83
2023-01-18T20:17:59.145Z,5.60
2023-01-18T20:20:32.740Z,6.03
2023-01-18T20:23:03.962Z,6.50
2023-01-18T20:25:33.210Z,6.37
2023-01-18T20:28:02.993Z,6.13
2023-01-18T20:30:31.431Z,5.97
2023-01-18T20:33:00.266Z,5.53
2023-01-18T20:35:28.883Z,6.03
2023-01-18T20:37:57.708Z,5.97
2023-01-18T20:40:26.342Z,5.90
2023-01-18T20:42:55.322Z,6.00
2023-01-18T20:45:25.299Z,5.33
2023-01-18T20:47:53.785Z,5.87
2023-01-18T20:50:23.241Z,5.50
2023-01-18T20:52:51.645Z,5.87
2023-01-18T20:55:20.739Z,5.83
2023-01-18T20:57:52.161Z,6.07
2023-01-18T21:00:21.392Z,6.10
2023-01-18T21:02:52.604Z,5.73
2023-01-18T21:05:21.229Z,6.83
2023-01-18T21:07:50.030Z,5.40
2023-01-18T21:10:18.653Z,5.63
2023-01-18T21:12:49.105Z,6.03
2023-01-18T21:15:17.845Z,5.17
2023-01-18T21:17:47.164Z,5.13
2023-01-18T21:20:17.903Z,5.30
2023-01-18T21:22:48.595Z,5.07
2023-01-18T21:25:19.676Z,5.37
2023-01-18T21:27:47.882Z,5.97
2023-01-18T21:30:16.862Z,4.97
2023-01-18T21:32:45.792Z,4.87
2023-01-18T21:35:14.113Z,4.90
2023-01-18T21:37:44.360Z,5.30
2023-01-18T21:40:13.990Z,5.67
2023-01-18T21:42:59.495Z,6.53
2023-01-18T21:45:45.268Z,5.63
2023-01-18T21:48:15.482Z,5.20
2023-01-18T21:51:01.680Z,5.43
2023-01-18T21:53:49.462Z,5.00
2023-01-18T21:56:18.811Z,5.80
2023-01-18T21:58:58.141Z,5.17
2023-01-18T22:01:34.072Z,6.50
2023-01-18T22:04:21.264Z,5.57
2023-01-18T22:06:49.951Z,5.43
2023-01-18T22:09:20.169Z,5.87
2023-01-18T22:11:49.203Z,6.43
2023-01-18T22:14:17.691Z,6.23
2023-01-18T22:16:46.089Z,6.03
2023-01-18T22:19:21.512Z,6.60
2023-01-18T22:21:50.831Z,6.43
2023-01-18T22:24:20.576Z,5.53
2023-01-18T22:26:49.312Z,7.10
2023-01-18T22:29:18.074Z,6.10
2023-01-18T22:31:46.695Z,6.87
2023-01-18T22:34:19.626Z,6.10
2023-01-18T22:36:48.168Z,6.57
2023-01-18T22:39:16.824Z,6.60
2023-01-18T22:41:46.381Z,7.13
2023-01-18T22:44:17.754Z,6.83
2023-01-18T22:46:46.707Z,6.63
2023-01-18T22:49:15.244Z,6.97
2023-01-18T22:51:43.518Z,6.40
2023-01-18T22:54:12.220Z,6.40
2023-01-18T22:56:40.370Z,7.23
2023-01-18T22:59:10.247Z,6.60
2023-01-18T23:01:38.861Z,6.87
2023-01-18T23:04:07.369Z,6.97
2023-01-18T23:06:46.822Z,6.10
2023-01-18T23:09:17.283Z,6.73
2023-01-18T23:11:47.379Z,6.43
2023-01-18T23:14:34.579Z,7.93
2023-01-18T23:17:20.573Z,6.70
2023-01-18T23:19:49.167Z,6.60
2023-01-18T23:22:17.978Z,7.13
2023-01-18T23:24:46.269Z,6.00
2023-01-18T23:27:15.449Z,6.67
2023-01-18T23:29:46.651Z,6.80
2023-01-18T23:32:15.329Z,6.57
2023-01-18T23:34:44.100Z,7.30
2023-01-18T23:37:12.680Z,6.57
2023-01-18T23:39:58.243Z,6.70
2023-01-18T23:42:44.022Z,7.00
2023-01-18T23:45:31.391Z,6.70
2023-01-18T23:48:24.006Z,6.60
2023-01-18T23:51:09.838Z,6.47
2023-01-18T23:53:55.257Z,7.53
2023-01-18T23:56:23.601Z,6.43
2023-01-18T23:58:53.708Z,6.87
